Time;durP1;ratioP1;P1;durP2;ratioP2;P2;SDS_P1;SDS_P2;PMS_P1;PMS_P2;Temp;Humidity;BMP_temperature;BMP_pressure;BME280_temperature;BME280_humidity;BME280_pressure;Samples;Min_cycle;Max_cycle;Signal;HPM_P1;HPM_P2
2021/08/08 00:01:05;;;;;;;;;3.00;2.00;;;;;;;;4564028;31;45715;-82
2021/08/08 00:03:30;;;;;;;;;2.00;2.00;;;;;;;;4568307;30;45608;-81
2021/08/08 00:05:55;;;;;;;;;1.75;1.75;;;;;;;;4580232;30;45800;-83
2021/08/08 00:08:24;;;;;;;;;2.00;2.00;;;;;;;;4580174;30;46286;-81
2021/08/08 00:10:49;;;;;;;;;1.25;1.25;;;;;;;;4587105;30;46623;-82
2021/08/08 00:13:15;;;;;;;;;2.75;1.00;;;;;;;;4580632;30;45885;-82
2021/08/08 00:15:40;;;;;;;;;2.00;2.00;;;;;;;;4580106;30;45582;-82
2021/08/08 00:21:23;;;;;;;;;2.00;2.00;;;;;;;;4569946;30;45612;-81
2021/08/08 00:23:58;;;;;;;;;2.25;1.00;;;;;;;;4576021;30;45722;-83
2021/08/08 00:26:23;;;;;;;;;1.50;1.25;;;;;;;;4571192;30;45588;-82
2021/08/08 00:28:57;;;;;;;;;1.25;1.25;;;;;;;;4578578;30;47272;-82
2021/08/08 00:31:23;;;;;;;;;1.50;1.50;;;;;;;;4573029;30;45633;-82
2021/08/08 00:33:49;;;;;;;;;3.00;2.25;;;;;;;;4577162;30;45557;-81
2021/08/08 00:36:21;;;;;;;;;2.00;2.00;;;;;;;;4564435;30;45585;-82
2021/08/08 00:45:05;;;;;;;;;4.75;2.00;;;;;;;;4516037;31;45420;-81
2021/08/08 00:47:30;;;;;;;;;4.25;3.00;;;;;;;;4507164;31;45677;-82
2021/08/08 00:49:58;;;;;;;;;4.00;3.00;;;;;;;;4529119;31;46301;-82
2021/08/08 00:52:23;;;;;;;;;1.75;1.75;;;;;;;;4507863;31;45714;-82
2021/08/08 00:54:48;;;;;;;;;2.00;2.00;;;;;;;;4520044;31;45479;-79
2021/08/08 00:57:39;;;;;;;;;4.00;3.67;;;;;;;;4634556;24;46136;-79
2021/08/08 01:00:06;;;;;;;;;3.25;2.00;;;;;;;;4614073;30;48490;-79
2021/08/08 01:02:57;;;;;;;;;5.00;3.00;;;;;;;;4600064;30;45583;-79
2021/08/08 01:05:27;;;;;;;;;3.25;2.00;;;;;;;;4597807;30;49017;-79
2021/08/08 01:08:04;;;;;;;;;4.50;2.00;;;;;;;;4603227;30;45793;-80
2021/08/08 01:10:52;;;;;;;;;2.00;1.75;;;;;;;;4607325;30;46967;-79
2021/08/08 01:13:18;;;;;;;;;3.25;2.00;;;;;;;;4586590;30;45604;-79
2021/08/08 01:18:17;;;;;;;;;3.50;3.00;;;;;;;;4680622;30;45591;-79
2021/08/08 01:20:44;;;;;;;;;3.50;2.75;;;;;;;;4685210;30;45602;-79
2021/08/08 01:23:10;;;;;;;;;2.25;2.25;;;;;;;;4676050;30;45571;-79
2021/08/08 01:25:44;;;;;;;;;2.25;2.25;;;;;;;;4689719;30;45566;-80
2021/08/08 01:28:29;;;;;;;;;4.00;2.00;;;;;;;;4688076;30;46107;-79
2021/08/08 01:30:54;;;;;;;;;2.00;1.25;;;;;;;;4686087;30;45780;-80
2021/08/08 01:33:23;;;;;;;;;1.50;1.50;;;;;;;;4694762;30;45442;-79
2021/08/08 01:35:49;;;;;;;;;4.50;3.25;;;;;;;;4686484;30;45658;-80
2021/08/08 01:38:14;;;;;;;;;4.00;3.00;;;;;;;;4689261;30;53610;-79
2021/08/08 01:40:39;;;;;;;;;3.00;3.00;;;;;;;;4687275;30;48124;-80
2021/08/08 01:43:07;;;;;;;;;3.00;3.00;;;;;;;;4687296;30;45531;-80
2021/08/08 01:45:34;;;;;;;;;4.50;2.75;;;;;;;;4697213;30;45677;-80
2021/08/08 01:48:01;;;;;;;;;3.75;2.00;;;;;;;;4687539;30;45599;-79
2021/08/08 01:50:31;;;;;;;;;2.00;2.00;;;;;;;;4674560;30;47450;-80
2021/08/08 01:52:58;;;;;;;;;3.50;3.00;;;;;;;;4702005;30;53378;-79
2021/08/08 01:55:24;;;;;;;;;3.00;2.25;;;;;;;;4686435;30;45597;-79
2021/08/08 02:00:58;;;;;;;;;3.00;3.00;;;;;;;;4564666;31;46613;-85
2021/08/08 02:03:37;;;;;;;;;3.25;3.00;;;;;;;;4561829;31;46092;-80
2021/08/08 02:06:06;;;;;;;;;4.00;2.25;;;;;;;;4549915;31;45596;-79
2021/08/08 02:08:32;;;;;;;;;4.50;2.75;;;;;;;;4563492;31;45640;-81
2021/08/08 02:10:58;;;;;;;;;2.00;2.00;;;;;;;;4572247;30;46407;-80
2021/08/08 02:13:23;;;;;;;;;2.00;2.00;;;;;;;;4563166;31;45594;-80
2021/08/08 02:15:48;;;;;;;;;3.50;2.00;;;;;;;;4565869;31;45540;-79
2021/08/08 02:18:14;;;;;;;;;2.50;2.00;;;;;;;;4567045;31;45978;-78
2021/08/08 02:20:39;;;;;;;;;2.75;1.00;;;;;;;;4562936;31;45508;-77
2021/08/08 02:23:04;;;;;;;;;1.50;1.25;;;;;;;;4566475;30;48840;-78
2021/08/08 02:25:30;;;;;;;;;2.00;2.00;;;;;;;;4565136;31;45528;-77
2021/08/08 02:28:01;;;;;;;;;2.00;2.00;;;;;;;;4568029;31;45640;-78
2021/08/08 02:33:34;;;;;;;;;5.00;2.00;;;;;;;;4550183;30;46241;-80
2021/08/08 02:39:05;;;;;;;;;2.00;2.00;;;;;;;;4599224;30;46749;-80
2021/08/08 02:41:34;;;;;;;;;3.00;2.00;;;;;;;;4598735;30;45960;-79
2021/08/08 02:44:30;;;;;;;;;;;;;;;;;;;;;
2021/08/08 02:47:04;;;;;;;;;2.50;2.00;;;;;;;;4601726;30;67521;-79
2021/08/08 02:52:57;;;;;;;;;2.00;2.00;;;;;;;;4568131;30;45737;-79
2021/08/08 02:58:45;;;;;;;;;5.75;3.00;;;;;;;;4495524;31;45554;-82
2021/08/08 03:01:11;;;;;;;;;2.00;1.00;;;;;;;;4500826;31;45790;-82
2021/08/08 03:06:33;;;;;;;;;2.00;2.00;;;;;;;;4498368;31;45746;-81
2021/08/08 03:08:58;;;;;;;;;3.00;3.00;;;;;;;;4500168;31;45579;-82
2021/08/08 03:11:26;;;;;;;;;2.00;2.00;;;;;;;;4506885;31;45662;-82
2021/08/08 03:13:51;;;;;;;;;6.00;3.75;;;;;;;;4504411;31;46578;-82
2021/08/08 03:19:21;;;;;;;;;2.50;2.50;;;;;;;;4484844;31;45554;-81
2021/08/08 03:21:46;;;;;;;;;2.00;2.00;;;;;;;;4488425;31;45589;-83
2021/08/08 03:24:17;;;;;;;;;3.00;3.00;;;;;;;;4486154;31;45661;-81
2021/08/08 03:27:08;;;;;;;;;3.00;3.00;;;;;;;;4484829;31;45706;-81
2021/08/08 03:29:33;;;;;;;;;3.00;3.00;;;;;;;;4469682;31;46249;-81
2021/08/08 03:31:59;;;;;;;;;3.00;2.00;;;;;;;;4499713;31;45595;-81
2021/08/08 03:40:24;;;;;;;;;4.00;3.50;;;;;;;;4534621;28;45839;-81
2021/08/08 03:43:25;;;;;;;;;4.75;2.75;;;;;;;;4702815;30;45546;-81
2021/08/08 03:45:50;;;;;;;;;4.00;3.00;;;;;;;;4614276;30;46311;-85
2021/08/08 03:48:16;;;;;;;;;4.25;4.00;;;;;;;;4618542;30;48417;-82
2021/08/08 03:50:47;;;;;;;;;4.75;3.75;;;;;;;;4615360;30;45779;-81
2021/08/08 03:53:12;;;;;;;;;4.75;3.00;;;;;;;;4620091;30;45452;-81
2021/08/08 04:00:50;;;;;;;;;3.75;3.25;;;;;;;;4041080;28;46231;-81
2021/08/08 04:03:22;;;;;;;;;4.00;2.50;;;;;;;;4633297;30;45722;-81
2021/08/08 04:05:53;;;;;;;;;5.00;4.00;;;;;;;;4642143;30;47518;-81
2021/08/08 04:08:18;;;;;;;;;3.25;3.00;;;;;;;;4640233;30;45589;-82
2021/08/08 04:10:43;;;;;;;;;5.00;3.33;;;;;;;;4641403;30;46474;-81
2021/08/08 04:13:26;;;;;;;;;4.50;3.00;;;;;;;;4655816;30;45724;-81
2021/08/08 04:15:52;;;;;;;;;5.00;3.00;;;;;;;;4654522;30;45673;-89
2021/08/08 04:18:17;;;;;;;;;4.50;3.75;;;;;;;;4643425;30;45548;-81
2021/08/08 04:20:42;;;;;;;;;5.00;3.00;;;;;;;;4656402;30;46806;-81
2021/08/08 04:23:10;;;;;;;;;3.00;3.00;;;;;;;;4665597;30;45578;-81
2021/08/08 04:25:42;;;;;;;;;3.75;3.75;;;;;;;;4656146;30;46441;-81
2021/08/08 04:28:07;;;;;;;;;6.00;4.00;;;;;;;;4663485;30;45536;-81
2021/08/08 04:30:53;;;;;;;;;5.00;2.50;;;;;;;;4650575;30;45598;-81
2021/08/08 04:33:51;;;;;;;;;8.00;4.50;;;;;;;;4645938;30;45622;-81
2021/08/08 04:36:48;;;;;;;;;7.75;6.00;;;;;;;;4602375;30;47637;-80
2021/08/08 04:39:13;;;;;;;;;3.00;3.00;;;;;;;;4570698;30;51519;-81
2021/08/08 04:41:38;;;;;;;;;5.00;3.00;;;;;;;;4571660;30;45547;-81
2021/08/08 04:46:48;;;;;;;;;6.00;4.00;;;;;;;;4746706;24;45475;-80
2021/08/08 04:49:19;;;;;;;;;3.75;3.50;;;;;;;;4687010;30;45647;-80
2021/08/08 04:51:45;;;;;;;;;5.75;3.50;;;;;;;;4686845;30;45825;-81
2021/08/08 04:59:25;;;;;;;;;5.75;4.00;;;;;;;;4864358;24;45929;-80
2021/08/08 05:01:51;;;;;;;;;5.00;4.00;;;;;;;;4689809;30;46111;-80
2021/08/08 05:04:16;;;;;;;;;3.67;2.00;;;;;;;;4690637;30;45449;-81
2021/08/08 05:06:41;;;;;;;;;6.00;4.00;;;;;;;;4691615;30;46267;-81
2021/08/08 05:09:12;;;;;;;;;3.25;3.00;;;;;;;;4756021;24;45502;-80
2021/08/08 05:11:38;;;;;;;;;5.25;5.25;;;;;;;;4657532;30;45734;-80
2021/08/08 05:14:26;;;;;;;;;8.00;4.00;;;;;;;;4662005;30;45613;-80
2021/08/08 05:17:05;;;;;;;;;4.00;3.00;;;;;;;;4651787;30;47065;-81
2021/08/08 05:19:30;;;;;;;;;4.00;3.00;;;;;;;;4659755;30;45676;-80
2021/08/08 05:21:56;;;;;;;;;3.00;3.00;;;;;;;;4656080;30;45643;-82
2021/08/08 05:26:56;;;;;;;;;5.25;3.50;;;;;;;;4684285;30;46299;-80
2021/08/08 05:29:58;;;;;;;;;5.25;4.00;;;;;;;;4686312;30;45699;-82
2021/08/08 05:32:24;;;;;;;;;5.25;3.50;;;;;;;;4663078;30;47078;-80
2021/08/08 05:34:49;;;;;;;;;4.75;3.00;;;;;;;;4673292;30;48812;-81
2021/08/08 05:37:14;;;;;;;;;6.00;3.50;;;;;;;;4688481;30;45616;-80
2021/08/08 05:43:06;;;;;;;;;4.00;3.00;;;;;;;;4674920;30;45401;-80
2021/08/08 05:45:31;;;;;;;;;4.75;3.50;;;;;;;;4621686;30;45604;-80
2021/08/08 05:48:31;;;;;;;;;4.00;3.00;;;;;;;;4602826;30;48047;-80
2021/08/08 05:50:56;;;;;;;;;4.50;3.50;;;;;;;;4604451;30;45870;-80
2021/08/08 05:53:24;;;;;;;;;5.00;3.75;;;;;;;;4618908;30;45606;-78
2021/08/08 05:55:50;;;;;;;;;6.25;4.00;;;;;;;;4620016;30;45647;-78
2021/08/08 05:58:18;;;;;;;;;4.00;3.25;;;;;;;;4601980;30;48256;-78
2021/08/08 06:00:43;;;;;;;;;5.75;4.00;;;;;;;;4617903;30;45756;-78
2021/08/08 06:03:41;;;;;;;;;4.00;4.00;;;;;;;;4620707;30;45477;-77
2021/08/08 06:06:08;;;;;;;;;3.00;3.00;;;;;;;;4604849;30;45599;-78
2021/08/08 06:08:33;;;;;;;;;4.75;2.75;;;;;;;;4615665;30;45523;-78
2021/08/08 06:11:01;;;;;;;;;4.50;3.50;;;;;;;;4622666;30;45951;-79
2021/08/08 06:13:27;;;;;;;;;3.50;3.00;;;;;;;;4618093;30;45631;-78
2021/08/08 06:15:52;;;;;;;;;3.67;2.00;;;;;;;;4636501;30;45665;-78
2021/08/08 06:18:32;;;;;;;;;8.25;4.00;;;;;;;;4692625;30;45637;-78
2021/08/08 06:20:58;;;;;;;;;5.25;3.00;;;;;;;;4677834;30;46951;-79
2021/08/08 06:23:29;;;;;;;;;3.75;3.75;;;;;;;;4794426;24;44860;-78
2021/08/08 06:26:03;;;;;;;;;5.00;3.25;;;;;;;;4692168;30;46002;-80
2021/08/08 06:28:37;;;;;;;;;8.50;3.50;;;;;;;;4686140;30;46360;-77
2021/08/08 06:31:04;;;;;;;;;5.00;3.75;;;;;;;;4676655;30;45619;-78
2021/08/08 06:33:30;;;;;;;;;4.00;3.00;;;;;;;;4690895;30;49837;-78
2021/08/08 06:35:58;;;;;;;;;5.00;4.00;;;;;;;;4684451;30;45512;-78
2021/08/08 06:41:55;;;;;;;;;4.25;3.00;;;;;;;;4600289;30;45842;-77
2021/08/08 06:44:21;;;;;;;;;4.25;3.50;;;;;;;;4597458;30;45518;-79
2021/08/08 06:46:46;;;;;;;;;4.75;4.75;;;;;;;;4574905;30;46640;-78
2021/08/08 06:49:11;;;;;;;;;6.25;3.25;;;;;;;;4600761;30;47516;-79
2021/08/08 06:54:42;;;;;;;;;7.25;4.00;;;;;;;;4594514;30;45575;-79
2021/08/08 06:57:10;;;;;;;;;5.75;4.00;;;;;;;;4604079;30;45593;-78
2021/08/08 06:59:39;;;;;;;;;5.00;4.00;;;;;;;;4599128;30;46312;-78
2021/08/08 07:02:04;;;;;;;;;3.75;3.00;;;;;;;;4602467;30;45456;-78
2021/08/08 07:04:29;;;;;;;;;5.00;3.00;;;;;;;;4599831;30;45655;-79
2021/08/08 07:07:15;;;;;;;;;5.00;4.00;;;;;;;;4603969;30;45591;-78
2021/08/08 07:09:48;;;;;;;;;5.75;4.00;;;;;;;;4603008;30;46139;-78
2021/08/08 07:12:13;;;;;;;;;3.50;3.00;;;;;;;;4596868;30;45816;-77
2021/08/08 07:14:38;;;;;;;;;5.75;4.50;;;;;;;;4599305;30;47916;-78
2021/08/08 07:17:06;;;;;;;;;5.50;4.50;;;;;;;;4591230;30;45612;-77
2021/08/08 07:19:32;;;;;;;;;6.25;3.00;;;;;;;;4663827;30;47407;-78
2021/08/08 07:21:59;;;;;;;;;4.00;3.75;;;;;;;;4671238;30;45506;-80
2021/08/08 07:24:25;;;;;;;;;4.00;2.50;;;;;;;;4691605;30;45355;-79
2021/08/08 07:29:53;;;;;;;;;7.25;4.00;;;;;;;;4644636;30;46819;-79
2021/08/08 07:32:48;;;;;;;;;4.25;4.00;;;;;;;;4636346;30;53160;-78
2021/08/08 07:35:36;;;;;;;;;5.50;3.75;;;;;;;;4653171;30;45706;-78
2021/08/08 07:38:02;;;;;;;;;5.25;3.75;;;;;;;;4649870;30;45630;-80
2021/08/08 07:40:30;;;;;;;;;5.00;3.00;;;;;;;;4648161;30;46441;-80
2021/08/08 07:42:58;;;;;;;;;2.00;2.00;;;;;;;;4644596;30;45536;-79
2021/08/08 07:45:23;;;;;;;;;3.00;3.00;;;;;;;;4656293;30;45639;-78
2021/08/08 07:48:11;;;;;;;;;3.75;2.00;;;;;;;;4642601;30;45556;-77
2021/08/08 07:50:37;;;;;;;;;5.00;3.50;;;;;;;;4634921;30;56780;-79
2021/08/08 07:53:05;;;;;;;;;6.00;3.25;;;;;;;;4651937;30;45554;-79
2021/08/08 07:55:34;;;;;;;;;5.25;2.50;;;;;;;;4649323;30;45510;-82
2021/08/08 07:57:59;;;;;;;;;6.00;4.00;;;;;;;;4647706;30;50595;-81
2021/08/08 08:09:58;;;;;;;;;4.25;3.50;;;;;;;;4638125;30;45860;-81
2021/08/08 08:12:23;;;;;;;;;5.25;4.75;;;;;;;;4637724;30;45464;-81
2021/08/08 08:14:48;;;;;;;;;5.50;4.00;;;;;;;;4612788;30;45928;-82
2021/08/08 08:19:48;;;;;;;;;3.75;3.00;;;;;;;;4648886;30;45442;-83
2021/08/08 08:33:40;;;;;;;;;4.75;4.00;;;;;;;;4689313;30;45590;-82
2021/08/08 08:41:52;;;;;;;;;4.00;4.00;;;;;;;;1193954;28;45897;-81
2021/08/08 08:44:37;;;;;;;;;8.25;6.00;;;;;;;;4710405;30;46146;-82
2021/08/08 08:47:32;;;;;;;;;7.50;4.25;;;;;;;;4690841;30;45788;-80
2021/08/08 08:53:10;;;;;;;;;7.00;3.00;;;;;;;;4573535;30;45678;-81
2021/08/08 08:55:38;;;;;;;;;6.50;5.25;;;;;;;;4581134;30;46055;-81
2021/08/08 09:00:50;;;;;;;;;4.75;4.75;;;;;;;;4584602;30;45602;-79
2021/08/08 09:03:50;;;;;;;;;5.75;3.00;;;;;;;;4584353;30;45591;-78
2021/08/08 09:06:33;;;;;;;;;6.50;3.50;;;;;;;;4555448;30;48273;-80
2021/08/08 09:08:58;;;;;;;;;4.00;4.00;;;;;;;;4582497;30;45768;-78
2021/08/08 09:11:40;;;;;;;;;5.00;3.25;;;;;;;;4582698;30;45681;-81
2021/08/08 09:14:05;;;;;;;;;4.75;3.00;;;;;;;;4572676;30;45522;-80
2021/08/08 09:16:49;;;;;;;;;4.75;3.00;;;;;;;;4582116;30;45589;-80
2021/08/08 09:19:44;;;;;;;;;6.75;5.25;;;;;;;;4581114;30;45513;-79
2021/08/08 09:22:19;;;;;;;;;8.50;5.00;;;;;;;;4515582;31;45664;-83
2021/08/08 09:24:45;;;;;;;;;3.25;3.00;;;;;;;;4532068;31;45732;-81
2021/08/08 09:27:11;;;;;;;;;7.75;4.00;;;;;;;;4541674;30;55511;-80
2021/08/08 09:29:59;;;;;;;;;4.50;4.00;;;;;;;;4602487;30;45720;-79
2021/08/08 09:32:31;;;;;;;;;5.00;3.75;;;;;;;;4643257;30;45413;-79
2021/08/08 09:35:04;;;;;;;;;3.00;3.00;;;;;;;;4636700;30;45560;-79
2021/08/08 09:37:29;;;;;;;;;4.25;3.00;;;;;;;;4651554;30;46528;-79
2021/08/08 09:43:05;;;;;;;;;4.50;4.00;;;;;;;;4618992;30;45319;-79
2021/08/08 09:45:37;;;;;;;;;4.50;3.75;;;;;;;;4610127;30;45528;-80
2021/08/08 09:48:31;;;;;;;;;5.25;5.25;;;;;;;;4613643;30;54948;-79
2021/08/08 09:54:17;;;;;;;;;5.25;2.75;;;;;;;;4500280;31;45689;-80
2021/08/08 09:56:43;;;;;;;;;4.00;3.00;;;;;;;;4499695;31;47800;-79
2021/08/08 09:59:08;;;;;;;;;3.75;3.50;;;;;;;;4506236;31;45545;-80
2021/08/08 10:01:37;;;;;;;;;3.00;2.50;;;;;;;;4503339;31;45479;-79
2021/08/08 10:04:02;;;;;;;;;4.25;4.25;;;;;;;;4501460;31;55837;-80
2021/08/08 10:06:28;;;;;;;;;3.00;3.00;;;;;;;;4547201;24;45579;-79
2021/08/08 10:08:57;;;;;;;;;7.00;4.00;;;;;;;;4683382;30;46402;-79
2021/08/08 10:12:24;;;;;;;;;;;;;;;;;;;;;
2021/08/08 10:15:14;;;;;;;;;3.00;3.00;;;;;;;;4681855;30;45917;-78
2021/08/08 10:17:50;;;;;;;;;4.50;3.00;;;;;;;;4614886;30;46180;-79
2021/08/08 10:20:34;;;;;;;;;4.25;2.75;;;;;;;;4618892;30;56949;-79
2021/08/08 10:23:02;;;;;;;;;3.00;3.00;;;;;;;;4621212;30;45429;-79
2021/08/08 10:25:57;;;;;;;;;3.00;3.00;;;;;;;;4615731;30;45571;-78
2021/08/08 10:28:22;;;;;;;;;6.00;3.00;;;;;;;;4610763;30;45774;-78
2021/08/08 10:31:17;;;;;;;;;3.50;3.00;;;;;;;;4620123;30;47095;-78
2021/08/08 10:33:47;;;;;;;;;2.25;2.25;;;;;;;;4603069;30;47197;-80
2021/08/08 10:36:19;;;;;;;;;3.75;3.25;;;;;;;;4616162;30;45586;-78
2021/08/08 10:41:57;;;;;;;;;5.00;3.25;;;;;;;;4548965;31;45637;-78
2021/08/08 10:44:22;;;;;;;;;5.00;2.50;;;;;;;;4550491;31;45546;-78
2021/08/08 10:51:59;;;;;;;;;6.75;3.00;;;;;;;;4071715;28;45994;-77
2021/08/08 10:54:37;;;;;;;;;;;;;;;;;;;;;
2021/08/08 10:57:31;;;;;;;;;5.25;3.00;;;;;;;;4703974;30;68751;-77
2021/08/08 11:02:45;;;;;;;;;4.25;4.00;;;;;;;;4708629;30;45833;-78
2021/08/08 11:05:22;;;;;;;;;7.25;2.25;;;;;;;;4707930;30;45637;-79
2021/08/08 11:08:12;;;;;;;;;2.50;1.50;;;;;;;;4706585;30;45553;-78
2021/08/08 11:10:39;;;;;;;;;4.25;3.25;;;;;;;;4705001;30;46711;-77
2021/08/08 11:13:24;;;;;;;;;2.50;1.75;;;;;;;;4689196;30;47099;-78
2021/08/08 11:15:50;;;;;;;;;1.75;1.75;;;;;;;;4708247;30;45580;-77
2021/08/08 11:18:27;;;;;;;;;2.25;2.25;;;;;;;;4702956;30;45564;-77
2021/08/08 11:20:52;;;;;;;;;5.50;4.00;;;;;;;;4711683;24;45787;-90
2021/08/08 11:23:25;;;;;;;;;4.67;4.67;;;;;;;;4678709;30;48273;-90
2021/08/08 11:25:50;;;;;;;;;2.50;2.50;;;;;;;;4694271;30;45587;-89
2021/08/08 11:28:17;;;;;;;;;3.00;3.00;;;;;;;;4704829;24;45545;-77
2021/08/08 11:30:44;;;;;;;;;3.25;3.00;;;;;;;;4693327;30;45561;-78
2021/08/08 11:33:12;;;;;;;;;5.25;3.75;;;;;;;;4686222;30;46831;-78
2021/08/08 11:35:38;;;;;;;;;3.00;3.00;;;;;;;;4685726;30;48164;-79
2021/08/08 11:38:12;;;;;;;;;3.00;3.00;;;;;;;;4689287;30;45555;-78
2021/08/08 11:40:40;;;;;;;;;4.25;2.50;;;;;;;;4774528;24;45825;-78
2021/08/08 11:48:17;;;;;;;;;3.25;3.25;;;;;;;;4660551;30;45652;-78
2021/08/08 11:50:42;;;;;;;;;5.25;3.25;;;;;;;;4656398;30;45594;-77
2021/08/08 11:53:19;;;;;;;;;4.50;1.50;;;;;;;;4664799;30;45625;-78
2021/08/08 11:55:54;;;;;;;;;4.00;3.25;;;;;;;;4847542;24;48554;-80
2021/08/08 12:05:58;;;;;;;;;3.00;3.00;;;;;;;;4746796;24;45541;-80
2021/08/08 12:08:27;;;;;;;;;4.00;3.25;;;;;;;;4721441;24;45747;-80
2021/08/08 12:13:30;;;;;;;;;6.00;4.50;;;;;;;;4646136;30;46018;-81
2021/08/08 12:26:24;;;;;;;;;4.75;2.00;;;;;;;;4696148;24;51509;-80
2021/08/08 12:31:52;;;;;;;;;5.00;4.25;;;;;;;;4673879;30;49689;-79
2021/08/08 12:37:12;;;;;;;;;6.00;5.75;;;;;;;;4670709;30;45664;-80
2021/08/08 12:39:39;;;;;;;;;6.50;5.00;;;;;;;;4756972;24;45577;-79
2021/08/08 12:42:40;;;;;;;;;3.75;3.75;;;;;;;;4658421;30;47422;-79
2021/08/08 12:48:30;;;;;;;;;5.50;3.75;;;;;;;;4569012;31;45601;-80
2021/08/08 12:51:47;;;;;;;;;4.25;4.25;;;;;;;;4567257;30;45654;-76
2021/08/08 12:53:53;;;;;;;;;7.75;6.00;;;;;;;;4560178;30;45663;-79
2021/08/08 12:56:18;;;;;;;;;3.75;3.75;;;;;;;;4688203;24;45616;-93
2021/08/08 12:58:43;;;;;;;;;4.00;4.00;;;;;;;;4676499;30;45591;-92
2021/08/08 13:01:22;;;;;;;;;7.00;3.33;;;;;;;;4669208;30;45238;-93
2021/08/08 13:03:48;;;;;;;;;5.50;2.50;;;;;;;;4683450;30;45505;-93
2021/08/08 13:06:13;;;;;;;;;2.50;2.50;;;;;;;;4686394;30;46170;-94
2021/08/08 13:08:38;;;;;;;;;3.00;3.00;;;;;;;;4668870;30;46052;-94
2021/08/08 13:11:03;;;;;;;;;1.67;1.33;;;;;;;;4664682;30;45648;-93
2021/08/08 13:13:29;;;;;;;;;1.75;1.75;;;;;;;;4672495;30;45451;-93
2021/08/08 13:15:54;;;;;;;;;3.00;2.00;;;;;;;;4701942;24;46469;-81
2021/08/08 13:18:19;;;;;;;;;5.33;3.00;;;;;;;;4704894;24;45460;-94
2021/08/08 13:20:45;;;;;;;;;5.00;3.00;;;;;;;;4672565;30;45532;-95
2021/08/08 13:23:12;;;;;;;;;3.50;3.00;;;;;;;;4700803;30;44875;-92
2021/08/08 13:25:38;;;;;;;;;7.00;3.00;;;;;;;;4683232;30;47609;-94
2021/08/08 13:28:03;;;;;;;;;4.25;2.75;;;;;;;;4688906;30;45488;-96
2021/08/08 13:30:29;;;;;;;;;2.75;2.75;;;;;;;;4679293;30;44788;-94
2021/08/08 13:32:55;;;;;;;;;4.00;2.00;;;;;;;;4677814;30;44904;-93
2021/08/08 13:35:21;;;;;;;;;3.75;3.25;;;;;;;;4676353;30;47168;-94
2021/08/08 13:37:47;;;;;;;;;3.00;1.00;;;;;;;;4681436;30;45293;-91
2021/08/08 13:40:22;;;;;;;;;2.00;2.00;;;;;;;;4688785;30;45506;-95
2021/08/08 13:42:50;;;;;;;;;2.50;2.50;;;;;;;;4693450;30;45487;-94
2021/08/08 13:45:15;;;;;;;;;2.25;2.25;;;;;;;;4685010;30;45395;-91
2021/08/08 13:47:45;;;;;;;;;1.75;1.75;;;;;;;;4673568;30;45424;-93
2021/08/08 13:50:11;;;;;;;;;2.25;1.50;;;;;;;;4681975;30;45590;-94
2021/08/08 13:52:36;;;;;;;;;3.25;1.50;;;;;;;;4689187;30;45541;-92
2021/08/08 13:55:04;;;;;;;;;1.75;1.75;;;;;;;;4680147;30;47298;-91
2021/08/08 13:57:29;;;;;;;;;1.00;1.00;;;;;;;;4691172;30;45388;-91
2021/08/08 13:59:54;;;;;;;;;2.50;2.25;;;;;;;;4685409;30;44946;-90
2021/08/08 14:02:27;;;;;;;;;3.67;2.00;;;;;;;;4687393;30;45386;-91
2021/08/08 14:04:52;;;;;;;;;2.50;1.00;;;;;;;;4681302;30;45592;-91
2021/08/08 14:07:21;;;;;;;;;2.67;2.00;;;;;;;;4669886;30;46598;-92
2021/08/08 14:09:46;;;;;;;;;4.00;2.50;;;;;;;;4672329;30;45415;-93
2021/08/08 14:12:11;;;;;;;;;2.00;2.00;;;;;;;;4684057;30;46640;-94
2021/08/08 14:14:42;;;;;;;;;1.25;1.00;;;;;;;;4671262;30;47397;-93
2021/08/08 14:17:08;;;;;;;;;3.25;2.00;;;;;;;;4681106;30;45340;-89
2021/08/08 14:19:33;;;;;;;;;4.00;2.25;;;;;;;;4681484;30;45322;-92
2021/08/08 14:21:58;;;;;;;;;2.00;2.00;;;;;;;;4681542;30;45309;-91
2021/08/08 14:24:23;;;;;;;;;2.25;2.25;;;;;;;;4700620;30;45891;-92
2021/08/08 14:26:52;;;;;;;;;4.33;1.67;;;;;;;;4695738;30;45560;-92
2021/08/08 14:29:17;;;;;;;;;2.50;2.50;;;;;;;;4687182;30;45805;-89
2021/08/08 14:31:47;;;;;;;;;3.00;2.00;;;;;;;;4684733;30;45617;-94
2021/08/08 14:34:12;;;;;;;;;1.50;1.00;;;;;;;;4684004;30;46754;-93
2021/08/08 14:36:37;;;;;;;;;2.00;0.00;;;;;;;;4681255;30;45472;-92
2021/08/08 14:39:02;;;;;;;;;1.00;1.00;;;;;;;;4685953;30;45957;-93
2021/08/08 14:41:28;;;;;;;;;1.00;1.00;;;;;;;;4686559;30;45451;-93
2021/08/08 14:43:53;;;;;;;;;1.25;1.00;;;;;;;;4681995;30;47117;-92
2021/08/08 14:46:18;;;;;;;;;3.00;2.00;;;;;;;;4681981;30;45622;-92
2021/08/08 14:48:44;;;;;;;;;2.00;2.00;;;;;;;;4700813;30;45352;-90
2021/08/08 14:51:09;;;;;;;;;2.00;2.00;;;;;;;;4682743;30;45231;-92
2021/08/08 14:53:34;;;;;;;;;1.00;1.00;;;;;;;;4698277;30;45520;-91
2021/08/08 14:55:59;;;;;;;;;1.00;1.00;;;;;;;;4688028;30;45705;-92
2021/08/08 14:58:25;;;;;;;;;1.00;1.00;;;;;;;;4701467;30;45375;-92
2021/08/08 15:00:50;;;;;;;;;3.00;2.75;;;;;;;;4695621;24;45533;-79
2021/08/08 15:03:15;;;;;;;;;2.25;1.75;;;;;;;;4707557;24;45650;-92
2021/08/08 15:05:40;;;;;;;;;1.00;0.33;;;;;;;;4701147;30;45476;-92
2021/08/08 15:08:06;;;;;;;;;5.33;2.00;;;;;;;;4681190;30;45510;-93
2021/08/08 15:10:31;;;;;;;;;0.50;0.50;;;;;;;;4687598;30;45233;-90
2021/08/08 15:12:57;;;;;;;;;1.00;0.50;;;;;;;;4683822;30;46746;-91
2021/08/08 15:15:22;;;;;;;;;2.00;1.00;;;;;;;;4699736;30;45255;-92
2021/08/08 15:17:47;;;;;;;;;1.00;0.25;;;;;;;;4696491;30;47256;-94
2021/08/08 15:20:13;;;;;;;;;1.50;1.25;;;;;;;;4699730;30;45276;-92
2021/08/08 15:22:39;;;;;;;;;3.00;1.50;;;;;;;;4696100;30;45722;-92
2021/08/08 15:25:05;;;;;;;;;2.50;1.00;;;;;;;;4683983;30;46118;-92
2021/08/08 15:27:31;;;;;;;;;3.00;2.00;;;;;;;;4685962;30;45514;-91
2021/08/08 15:29:56;;;;;;;;;3.25;1.50;;;;;;;;4694833;30;45567;-91
2021/08/08 15:32:22;;;;;;;;;2.00;2.00;;;;;;;;4686567;30;47021;-92
2021/08/08 15:34:47;;;;;;;;;3.75;2.00;;;;;;;;4684244;30;45515;-91
2021/08/08 15:37:12;;;;;;;;;2.00;1.75;;;;;;;;4679023;30;45504;-93
2021/08/08 15:39:38;;;;;;;;;4.75;2.00;;;;;;;;4681540;30;45502;-93
2021/08/08 15:42:03;;;;;;;;;2.25;0.50;;;;;;;;4695621;30;46235;-91
2021/08/08 15:44:28;;;;;;;;;3.25;1.00;;;;;;;;4681621;30;47581;-91
2021/08/08 15:46:54;;;;;;;;;1.50;0.50;;;;;;;;4690580;30;45327;-94
2021/08/08 15:49:19;;;;;;;;;1.50;1.50;;;;;;;;4683291;30;45418;-92
2021/08/08 15:51:44;;;;;;;;;1.67;0.00;;;;;;;;4681976;30;48081;-93
2021/08/08 15:54:10;;;;;;;;;2.50;2.50;;;;;;;;4682534;30;45348;-94
2021/08/08 15:56:35;;;;;;;;;1.50;0.75;;;;;;;;4695527;30;45544;-93
2021/08/08 15:59:00;;;;;;;;;1.50;0.50;;;;;;;;4685336;30;45708;-91
2021/08/08 16:01:26;;;;;;;;;1.00;1.00;;;;;;;;4675699;30;47723;-92
2021/08/08 16:03:51;;;;;;;;;1.50;1.50;;;;;;;;4686638;30;45582;-91
2021/08/08 16:06:16;;;;;;;;;1.00;1.00;;;;;;;;4699634;30;45485;-91
2021/08/08 16:08:41;;;;;;;;;1.00;1.00;;;;;;;;4695714;30;45338;-91
2021/08/08 16:11:09;;;;;;;;;1.25;1.25;;;;;;;;4684433;30;47820;-94
2021/08/08 16:13:34;;;;;;;;;1.00;1.00;;;;;;;;4693858;30;45433;-93
2021/08/08 16:15:59;;;;;;;;;1.75;1.75;;;;;;;;4691681;30;45504;-91
2021/08/08 16:18:25;;;;;;;;;1.25;1.25;;;;;;;;4671106;30;45219;-92
2021/08/08 16:20:50;;;;;;;;;2.50;1.50;;;;;;;;4694814;30;46530;-92
2021/08/08 16:23:15;;;;;;;;;1.75;1.75;;;;;;;;4721612;24;45647;-82
2021/08/08 16:25:42;;;;;;;;;2.25;0.75;;;;;;;;4753565;24;45580;-79
2021/08/08 16:28:10;;;;;;;;;3.25;2.50;;;;;;;;4675290;30;45754;-78
2021/08/08 16:30:35;;;;;;;;;1.00;1.00;;;;;;;;4679493;30;46718;-79
2021/08/08 16:45:56;;;;;;;;;4.00;3.00;;;;;;;;1373811;28;46585;-87
2021/08/08 16:50:57;;;;;;;;;2.00;1.25;;;;;;;;4328636;27;45502;-80
2021/08/08 16:53:22;;;;;;;;;0.50;0.50;;;;;;;;4712772;29;45198;-79
2021/08/08 16:55:48;;;;;;;;;2.00;2.00;;;;;;;;4697876;30;45486;-78
2021/08/08 17:03:31;;;;;;;;;2.50;2.25;;;;;;;;5040625;24;45079;-89
2021/08/08 17:05:56;;;;;;;;;4.00;1.00;;;;;;;;4685006;30;45645;-89
2021/08/08 17:08:22;;;;;;;;;2.67;1.00;;;;;;;;4690751;30;46288;-91
2021/08/08 17:10:47;;;;;;;;;1.33;1.00;;;;;;;;4689889;30;45567;-89
2021/08/08 17:13:12;;;;;;;;;4.00;2.00;;;;;;;;4678183;30;45580;-89
2021/08/08 17:15:37;;;;;;;;;2.33;2.00;;;;;;;;4925215;24;47801;-89
2021/08/08 17:18:02;;;;;;;;;1.00;1.00;;;;;;;;4656935;30;45454;-89
2021/08/08 17:20:28;;;;;;;;;2.00;2.00;;;;;;;;4652578;30;46906;-90
2021/08/08 17:22:53;;;;;;;;;4.25;2.25;;;;;;;;4654081;30;46163;-91
2021/08/08 17:25:18;;;;;;;;;1.00;1.00;;;;;;;;4657785;30;45487;-90
2021/08/08 17:27:44;;;;;;;;;2.25;1.00;;;;;;;;4655342;30;45409;-90
2021/08/08 17:30:09;;;;;;;;;2.50;2.00;;;;;;;;4659738;30;46406;-90
2021/08/08 17:32:35;;;;;;;;;1.00;1.00;;;;;;;;4655630;30;45717;-88
2021/08/08 17:35:00;;;;;;;;;3.33;1.00;;;;;;;;4661351;30;45412;-90
2021/08/08 17:37:26;;;;;;;;;3.33;1.00;;;;;;;;4658830;30;45543;-89
2021/08/08 17:39:51;;;;;;;;;1.00;1.00;;;;;;;;4652226;30;46476;-89
2021/08/08 17:42:16;;;;;;;;;1.67;1.67;;;;;;;;4794914;24;45888;-90
2021/08/08 17:44:41;;;;;;;;;2.00;2.00;;;;;;;;4839807;24;45436;-88
2021/08/08 17:47:07;;;;;;;;;1.00;1.00;;;;;;;;4758777;24;45575;-89
2021/08/08 17:49:32;;;;;;;;;1.00;1.00;;;;;;;;4702263;24;49307;-89
2021/08/08 17:51:57;;;;;;;;;2.00;2.00;;;;;;;;4703770;30;45742;-88
2021/08/08 18:33:08;;;;;;;;;1.25;0.50;;;;;;;;4604284;24;45937;-91
2021/08/08 18:35:34;;;;;;;;;1.00;1.00;;;;;;;;4968632;24;45625;-94